createdAt,value
2019-02-26T00:00:58.621Z,0.00
2019-02-26T00:01:59.763Z,0.00
2019-02-26T00:03:00.390Z,0.00
2019-02-26T00:03:57.478Z,0.00
2019-02-26T00:04:58.606Z,0.00
2019-02-26T00:05:59.283Z,0.00
2019-02-26T00:06:57.958Z,0.00
2019-02-26T00:07:59.628Z,0.00
2019-02-26T00:09:00.798Z,0.00
2019-02-26T00:09:57.931Z,0.00
2019-02-26T00:11:00.772Z,0.00
2019-02-26T00:11:57.374Z,0.00
2019-02-26T00:12:57.359Z,0.00
2019-02-26T00:13:58.904Z,0.00
2019-02-26T00:14:59.513Z,0.00
2019-02-26T00:15:57.324Z,0.00
2019-02-26T00:16:57.317Z,0.00
2019-02-26T00:17:57.302Z,0.00
2019-02-26T00:19:00.748Z,0.00
2019-02-26T00:19:58.300Z,0.00
2019-02-26T00:20:59.003Z,0.00
2019-02-26T00:21:57.257Z,0.00
2019-02-26T00:22:59.707Z,0.00
2019-02-26T00:23:57.238Z,0.00
2019-02-26T00:24:57.255Z,0.00
2019-02-26T00:25:57.217Z,0.00
2019-02-26T00:26:58.511Z,0.00
2019-02-26T00:27:58.626Z,0.00
2019-02-26T00:28:59.639Z,0.00
2019-02-26T00:29:57.171Z,0.00
2019-02-26T00:30:59.261Z,0.00
2019-02-26T00:31:57.809Z,0.00
2019-02-26T00:32:58.306Z,0.00
2019-02-26T00:33:57.122Z,0.00
2019-02-26T00:34:58.008Z,0.00
2019-02-26T00:35:57.128Z,0.00
2019-02-26T00:36:57.666Z,0.00
2019-02-26T00:37:57.079Z,0.00
2019-02-26T00:38:58.429Z,0.00
2019-02-26T00:39:57.055Z,0.00
2019-02-26T00:40:57.845Z,0.00
2019-02-26T00:41:58.229Z,0.00
2019-02-26T00:42:59.480Z,0.00
2019-02-26T00:43:57.705Z,0.00
2019-02-26T00:44:58.252Z,0.00
2019-02-26T00:45:58.280Z,0.00
2019-02-26T00:46:57.626Z,0.00
2019-02-26T00:47:56.970Z,0.00
2019-02-26T00:48:59.088Z,0.00
2019-02-26T00:49:56.944Z,0.00
2019-02-26T00:50:59.428Z,0.00
2019-02-26T00:51:56.923Z,0.00
2019-02-26T00:52:58.854Z,0.00
2019-02-26T00:53:57.435Z,0.00
2019-02-26T00:54:58.197Z,0.00
2019-02-26T00:55:58.715Z,0.00
2019-02-26T00:56:59.105Z,0.00
2019-02-26T00:57:58.857Z,0.00
2019-02-26T00:58:56.842Z,0.00
2019-02-26T00:59:56.838Z,0.00
2019-02-26T01:00:56.821Z,0.00
2019-02-26T01:01:57.681Z,0.00
2019-02-26T01:02:56.823Z,0.00
2019-02-26T01:03:56.788Z,0.00
2019-02-26T01:04:56.775Z,0.00
2019-02-26T01:05:57.491Z,0.00
2019-02-26T01:06:58.992Z,0.00
2019-02-26T01:07:56.741Z,0.00
2019-02-26T01:08:56.749Z,0.00
2019-02-26T01:09:56.981Z,0.00
2019-02-26T01:10:57.512Z,0.00
2019-02-26T01:11:56.699Z,0.00
2019-02-26T01:12:58.572Z,0.00
2019-02-26T01:13:57.409Z,0.00
2019-02-26T01:14:56.662Z,0.00
2019-02-26T01:15:56.652Z,0.00
2019-02-26T01:16:56.642Z,0.00
2019-02-26T01:17:58.705Z,0.00
2019-02-26T01:18:56.621Z,0.00
2019-02-26T01:19:58.782Z,0.00
2019-02-26T01:20:57.346Z,0.00
2019-02-26T01:21:56.588Z,0.00
2019-02-26T01:22:56.572Z,0.00
2019-02-26T01:23:58.623Z,0.00
2019-02-26T01:24:58.368Z,0.00
2019-02-26T01:25:56.542Z,0.00
2019-02-26T01:26:56.530Z,0.00
2019-02-26T01:27:58.576Z,0.00
2019-02-26T01:28:58.404Z,0.00
2019-02-26T01:29:58.135Z,0.00
2019-02-26T01:30:57.929Z,0.00
2019-02-26T01:31:56.477Z,0.00
2019-02-26T01:32:59.627Z,0.00
2019-02-26T01:33:57.380Z,0.00
2019-02-26T01:34:56.437Z,0.00
2019-02-26T01:35:58.050Z,0.00
2019-02-26T01:36:56.414Z,0.00
2019-02-26T01:37:58.094Z,0.00
2019-02-26T01:38:56.392Z,0.00
2019-02-26T01:39:56.397Z,0.00
2019-02-26T01:40:56.405Z,0.00
2019-02-26T01:41:58.319Z,0.00
2019-02-26T01:42:57.875Z,0.00
2019-02-26T01:43:56.336Z,0.00
2019-02-26T01:44:56.328Z,0.00
2019-02-26T01:45:56.315Z,0.00
2019-02-26T01:46:58.305Z,0.00
2019-02-26T01:47:56.291Z,0.00
2019-02-26T01:48:57.572Z,0.00
2019-02-26T01:49:56.270Z,0.00
2019-02-26T01:50:57.459Z,0.00
2019-02-26T01:51:56.277Z,0.00
2019-02-26T01:52:58.085Z,0.00
2019-02-26T01:53:56.223Z,0.00
2019-02-26T01:54:58.506Z,0.00
2019-02-26T01:55:56.207Z,0.00
2019-02-26T01:56:56.190Z,0.00
2019-02-26T01:57:58.509Z,0.00
2019-02-26T01:58:57.013Z,0.00
2019-02-26T01:59:56.158Z,0.00
2019-02-26T02:00:56.143Z,0.00
2019-02-26T02:01:56.147Z,0.00
2019-02-26T02:02:56.145Z,0.00
2019-02-26T02:03:56.422Z,0.00
2019-02-26T02:04:57.354Z,0.00
2019-02-26T02:05:56.087Z,0.00
2019-02-26T02:06:57.102Z,0.00
2019-02-26T02:07:56.146Z,0.00
2019-02-26T02:08:56.056Z,0.00
2019-02-26T02:09:58.053Z,0.00
2019-02-26T02:10:58.921Z,0.00
2019-02-26T02:11:57.361Z,0.00
2019-02-26T02:12:59.527Z,0.00
2019-02-26T02:13:56.029Z,0.00
2019-02-26T02:14:55.990Z,0.00
2019-02-26T02:15:57.569Z,0.00
2019-02-26T02:16:55.968Z,0.00
2019-02-26T02:17:57.728Z,0.00
2019-02-26T02:18:58.210Z,0.00
2019-02-26T02:19:55.931Z,0.00
2019-02-26T02:20:55.921Z,0.00
2019-02-26T02:21:56.476Z,0.00
2019-02-26T02:22:58.143Z,0.00
2019-02-26T02:23:56.042Z,0.00
2019-02-26T02:24:55.878Z,0.00
2019-02-26T02:25:59.808Z,0.00
2019-02-26T02:26:57.964Z,0.00
2019-02-26T02:27:57.460Z,0.00
2019-02-26T02:28:55.863Z,0.00
2019-02-26T02:29:57.673Z,0.00
2019-02-26T02:30:55.811Z,0.00
2019-02-26T02:31:58.433Z,0.00
2019-02-26T02:32:59.278Z,0.00
2019-02-26T02:33:55.782Z,0.00
2019-02-26T02:34:58.293Z,0.00
2019-02-26T02:35:56.751Z,0.00
2019-02-26T02:36:55.741Z,0.00
2019-02-26T02:37:57.274Z,0.00
2019-02-26T02:38:55.725Z,0.00
2019-02-26T02:39:55.734Z,0.00
2019-02-26T02:40:55.697Z,0.00
2019-02-26T02:41:55.694Z,0.00
2019-02-26T02:42:55.674Z,0.00
2019-02-26T02:43:55.671Z,0.00
2019-02-26T02:44:55.653Z,0.00
2019-02-26T02:45:56.447Z,0.00
2019-02-26T02:46:55.627Z,0.00
2019-02-26T02:48:00.339Z,0.00
2019-02-26T02:48:56.607Z,0.00
2019-02-26T02:49:55.595Z,0.00
2019-02-26T02:50:55.610Z,0.00
2019-02-26T02:51:55.575Z,0.00
2019-02-26T02:52:56.811Z,0.00
2019-02-26T02:53:57.275Z,0.00
2019-02-26T02:54:55.539Z,0.00
2019-02-26T02:55:55.528Z,0.00
2019-02-26T02:56:56.701Z,0.00
2019-02-26T02:57:57.741Z,0.00
2019-02-26T02:58:55.494Z,0.00
2019-02-26T02:59:56.898Z,0.00
2019-02-26T03:00:57.087Z,0.00
2019-02-26T03:01:57.110Z,0.00
2019-02-26T03:02:56.167Z,0.00
2019-02-26T03:03:56.448Z,0.00
2019-02-26T03:04:56.041Z,0.00
2019-02-26T03:05:55.412Z,0.00
2019-02-26T03:06:56.203Z,0.00
2019-02-26T03:07:56.389Z,0.00
2019-02-26T03:08:55.401Z,0.00
2019-02-26T03:09:55.371Z,0.00
2019-02-26T03:10:55.356Z,0.00
2019-02-26T03:11:55.345Z,0.00
2019-02-26T03:12:57.746Z,0.00
2019-02-26T03:13:55.545Z,0.00
2019-02-26T03:14:56.353Z,0.00
2019-02-26T03:15:56.623Z,0.00
2019-02-26T03:16:55.290Z,0.00
2019-02-26T03:17:55.277Z,0.00
2019-02-26T03:18:55.553Z,0.00
2019-02-26T03:19:56.009Z,0.00
2019-02-26T03:20:56.806Z,0.00
2019-02-26T03:21:55.233Z,0.00
2019-02-26T03:22:55.223Z,0.00
2019-02-26T03:23:57.671Z,0.00
2019-02-26T03:24:57.466Z,0.00
2019-02-26T03:25:55.265Z,0.00
2019-02-26T03:26:55.179Z,0.00
2019-02-26T03:27:55.543Z,0.00
2019-02-26T03:28:55.189Z,0.00
2019-02-26T03:29:56.240Z,0.00
2019-02-26T03:30:55.133Z,0.00
2019-02-26T03:31:56.056Z,0.00
2019-02-26T03:33:02.833Z,0.00
2019-02-26T03:34:04.222Z,0.00
2019-02-26T03:34:56.093Z,0.00
2019-02-26T03:35:55.075Z,0.00
2019-02-26T03:36:57.240Z,0.00
2019-02-26T03:37:57.958Z,0.00
2019-02-26T03:38:57.315Z,0.00
2019-02-26T03:39:57.328Z,0.00
2019-02-26T03:40:58.148Z,0.00
2019-02-26T03:41:56.488Z,0.00
2019-02-26T03:42:54.994Z,0.00
2019-02-26T03:43:57.355Z,0.00
2019-02-26T03:44:55.005Z,0.00
2019-02-26T03:45:54.962Z,0.00
2019-02-26T03:46:54.956Z,0.00
2019-02-26T03:47:55.471Z,0.00
2019-02-26T03:48:54.927Z,0.00
2019-02-26T03:49:54.915Z,0.00
2019-02-26T03:50:54.925Z,0.00
2019-02-26T03:51:59.053Z,0.00
2019-02-26T03:52:55.883Z,0.00
2019-02-26T03:53:54.875Z,0.00
2019-02-26T03:54:54.863Z,0.00
2019-02-26T03:55:59.546Z,0.00
2019-02-26T03:56:55.837Z,0.00
2019-02-26T03:57:57.154Z,0.00
2019-02-26T03:58:57.192Z,0.00
2019-02-26T03:59:55.811Z,0.00
2019-02-26T04:00:54.796Z,0.00
2019-02-26T04:01:54.799Z,0.00
2019-02-26T04:02:54.769Z,0.00
2019-02-26T04:03:56.996Z,0.00
2019-02-26T04:04:57.255Z,0.00
2019-02-26T04:05:57.191Z,0.00
2019-02-26T04:06:55.885Z,0.00
2019-02-26T04:07:55.711Z,0.00
2019-02-26T04:08:55.931Z,0.00
2019-02-26T04:09:55.910Z,0.00
2019-02-26T04:10:55.947Z,0.00
2019-02-26T04:11:55.434Z,0.00
2019-02-26T04:12:55.309Z,0.00
2019-02-26T04:13:56.646Z,0.00
2019-02-26T04:14:54.634Z,0.00
2019-02-26T04:15:57.108Z,0.00
2019-02-26T04:16:55.938Z,0.00
2019-02-26T04:17:54.632Z,0.00
2019-02-26T04:18:54.592Z,0.00
2019-02-26T04:19:54.577Z,0.00
2019-02-26T04:20:56.820Z,0.00
2019-02-26T04:21:55.553Z,0.00
2019-02-26T04:22:56.720Z,0.00
2019-02-26T04:23:54.549Z,0.00
2019-02-26T04:24:55.535Z,0.00
2019-02-26T04:25:57.647Z,0.00
2019-02-26T04:26:54.519Z,0.00
2019-02-26T04:27:56.355Z,0.00
2019-02-26T04:28:54.492Z,0.00
2019-02-26T04:29:54.463Z,0.00
2019-02-26T04:30:54.453Z,0.00
2019-02-26T04:31:55.632Z,0.00
2019-02-26T04:32:54.432Z,0.00
2019-02-26T04:33:56.040Z,0.00
2019-02-26T04:34:56.902Z,0.00
2019-02-26T04:35:55.502Z,0.00
2019-02-26T04:36:54.387Z,0.00
2019-02-26T04:37:55.807Z,0.00
2019-02-26T04:38:55.666Z,0.00
2019-02-26T04:39:54.350Z,0.00
2019-02-26T04:40:57.594Z,0.00
2019-02-26T04:41:55.337Z,0.00
2019-02-26T04:42:54.320Z,0.00
2019-02-26T04:43:57.002Z,0.00
2019-02-26T04:44:55.018Z,0.00
2019-02-26T04:45:54.282Z,0.00
2019-02-26T04:46:56.992Z,0.00
2019-02-26T04:47:57.365Z,0.00
2019-02-26T04:48:54.272Z,0.00
2019-02-26T04:49:56.756Z,0.00
2019-02-26T04:50:54.226Z,0.00
2019-02-26T04:51:54.214Z,0.00
2019-02-26T04:52:58.303Z,0.00
2019-02-26T04:53:56.105Z,0.00
2019-02-26T04:54:54.180Z,0.00
2019-02-26T04:55:54.205Z,0.00
2019-02-26T04:56:54.159Z,0.00
2019-02-26T04:57:54.255Z,0.00
2019-02-26T04:58:54.137Z,0.00
2019-02-26T04:59:55.646Z,0.00
2019-02-26T05:00:54.116Z,0.00
2019-02-26T05:01:55.120Z,0.00
2019-02-26T05:02:54.095Z,0.00
2019-02-26T05:03:54.080Z,0.00
2019-02-26T05:04:54.068Z,0.00
2019-02-26T05:05:56.429Z,0.00
2019-02-26T05:06:55.076Z,0.00
2019-02-26T05:07:54.033Z,0.00
2019-02-26T05:08:56.871Z,0.00
2019-02-26T05:09:56.728Z,0.00
2019-02-26T05:10:55.091Z,0.00
2019-02-26T05:11:54.551Z,0.00
2019-02-26T05:12:57.222Z,0.00
2019-02-26T05:13:53.975Z,0.00
2019-02-26T05:14:53.952Z,0.00
2019-02-26T05:15:53.945Z,0.00
2019-02-26T05:16:53.931Z,0.00
2019-02-26T05:17:53.950Z,0.00
2019-02-26T05:18:54.944Z,0.00
2019-02-26T05:19:53.900Z,0.00
2019-02-26T05:20:53.886Z,0.00
2019-02-26T05:21:55.978Z,0.00
2019-02-26T05:22:54.644Z,0.00
2019-02-26T05:23:55.112Z,0.00
2019-02-26T05:24:53.841Z,0.00
2019-02-26T05:25:53.828Z,0.00
2019-02-26T05:26:53.825Z,0.00
2019-02-26T05:27:53.809Z,0.00
2019-02-26T05:28:53.809Z,0.00
2019-02-26T05:29:54.712Z,0.00
2019-02-26T05:30:53.770Z,0.00
2019-02-26T05:31:55.659Z,0.00
2019-02-26T05:32:57.094Z,0.00
2019-02-26T05:33:55.343Z,0.00
2019-02-26T05:34:53.727Z,0.00
2019-02-26T05:35:53.735Z,0.00
2019-02-26T05:36:53.703Z,0.00
2019-02-26T05:37:56.162Z,0.00
2019-02-26T05:38:54.556Z,0.00
2019-02-26T05:39:54.649Z,4.00
2019-02-26T05:40:55.803Z,4.00
2019-02-26T05:41:55.573Z,0.00
2019-02-26T05:42:55.894Z,4.00
2019-02-26T05:43:56.059Z,0.00
2019-02-26T05:44:54.600Z,4.00
2019-02-26T05:45:56.701Z,4.00
2019-02-26T05:46:56.102Z,4.00
2019-02-26T05:47:57.069Z,4.00
2019-02-26T05:48:54.567Z,8.00
2019-02-26T05:49:53.557Z,8.00
2019-02-26T05:50:53.544Z,8.00
2019-02-26T05:51:56.082Z,12.00
2019-02-26T05:52:57.605Z,16.00
2019-02-26T05:53:54.513Z,12.00
2019-02-26T05:54:53.498Z,16.00
2019-02-26T05:55:55.980Z,20.00
2019-02-26T05:56:53.478Z,20.00
2019-02-26T05:57:53.480Z,24.00
2019-02-26T05:58:53.457Z,24.00
2019-02-26T05:59:53.441Z,28.00
2019-02-26T06:00:53.433Z,32.00
2019-02-26T06:01:55.932Z,32.00
2019-02-26T06:02:53.433Z,36.00
2019-02-26T06:03:53.400Z,40.00
2019-02-26T06:04:53.386Z,44.00
2019-02-26T06:05:55.529Z,48.00
2019-02-26T06:06:56.417Z,56.00
2019-02-26T06:07:54.379Z,64.00
2019-02-26T06:08:55.203Z,68.00
2019-02-26T06:09:55.767Z,76.00
2019-02-26T06:10:53.318Z,84.00
2019-02-26T06:11:53.304Z,96.00
2019-02-26T06:12:53.294Z,104.00
2019-02-26T06:13:55.525Z,112.00
2019-02-26T06:14:53.996Z,124.00
2019-02-26T06:15:55.208Z,128.00
2019-02-26T06:16:55.818Z,140.00
2019-02-26T06:17:53.935Z,152.00
2019-02-26T06:18:54.484Z,160.00
2019-02-26T06:19:53.242Z,168.00
2019-02-26T06:20:54.062Z,180.00
2019-02-26T06:21:54.793Z,192.00
2019-02-26T06:22:53.178Z,200.00
2019-02-26T06:23:53.169Z,212.00
2019-02-26T06:24:57.267Z,220.00
2019-02-26T06:25:55.989Z,232.00
2019-02-26T06:26:53.159Z,240.00
2019-02-26T06:27:53.126Z,252.00
2019-02-26T06:28:53.115Z,260.00
2019-02-26T06:29:57.304Z,268.00
2019-02-26T06:30:55.029Z,276.00
2019-02-26T06:31:53.079Z,288.00
2019-02-26T06:32:53.072Z,296.00
2019-02-26T06:33:53.055Z,304.00
2019-02-26T06:34:53.044Z,316.00
2019-02-26T06:35:54.785Z,328.00
2019-02-26T06:36:53.310Z,336.00
2019-02-26T06:37:53.013Z,348.00
2019-02-26T06:38:54.153Z,360.00
2019-02-26T06:39:54.933Z,372.00
2019-02-26T06:40:52.976Z,388.00
2019-02-26T06:41:52.963Z,404.00
2019-02-26T06:42:52.972Z,424.00
2019-02-26T06:43:54.961Z,436.00
2019-02-26T06:44:52.931Z,452.00
2019-02-26T06:45:52.920Z,460.00
2019-02-26T06:46:52.909Z,476.00
2019-02-26T06:47:54.632Z,484.00
2019-02-26T06:48:52.883Z,492.00
2019-02-26T06:49:52.880Z,504.00
2019-02-26T06:50:52.866Z,516.00
2019-02-26T06:51:54.312Z,536.00
2019-02-26T06:52:52.840Z,548.00
2019-02-26T06:53:54.182Z,568.00
2019-02-26T06:54:57.303Z,588.00
2019-02-26T06:55:53.803Z,612.00
2019-02-26T06:56:52.895Z,644.00
2019-02-26T06:57:55.095Z,668.00
2019-02-26T06:58:52.772Z,696.00
2019-02-26T06:59:55.139Z,720.00
2019-02-26T07:00:55.356Z,752.00
2019-02-26T07:01:55.606Z,788.00
2019-02-26T07:02:52.723Z,820.00
2019-02-26T07:03:55.765Z,832.00
2019-02-26T07:04:52.705Z,848.00
2019-02-26T07:05:52.713Z,872.00
2019-02-26T07:06:55.188Z,900.00
2019-02-26T07:07:56.554Z,940.00
2019-02-26T07:08:53.518Z,1200.00
2019-02-26T07:09:52.645Z,1344.00
2019-02-26T07:10:52.662Z,1412.00
2019-02-26T07:11:52.622Z,1216.00
2019-02-26T07:12:52.620Z,1204.00
2019-02-26T07:13:53.843Z,1184.00
2019-02-26T07:14:53.519Z,1220.00
2019-02-26T07:15:52.577Z,1080.00
2019-02-26T07:16:52.594Z,956.00
2019-02-26T07:17:52.556Z,936.00
2019-02-26T07:18:52.549Z,972.00
2019-02-26T07:19:53.844Z,1272.00
2019-02-26T07:20:55.023Z,1092.00
2019-02-26T07:21:53.058Z,1088.00
2019-02-26T07:22:52.514Z,1408.00
2019-02-26T07:23:54.594Z,1292.00
2019-02-26T07:24:53.996Z,1144.00
2019-02-26T07:25:52.465Z,1104.00
2019-02-26T07:26:52.453Z,1592.00
2019-02-26T07:27:53.604Z,3396.00
2019-02-26T07:28:52.429Z,1608.00
2019-02-26T07:29:52.516Z,1496.00
2019-02-26T07:30:52.407Z,1420.00
2019-02-26T07:31:54.098Z,1428.00
2019-02-26T07:32:52.385Z,1488.00
2019-02-26T07:33:53.365Z,1564.00
2019-02-26T07:34:52.362Z,1756.00
2019-02-26T07:35:54.385Z,1864.00
2019-02-26T07:36:52.523Z,5956.00
2019-02-26T07:37:54.474Z,6980.00
2019-02-26T07:38:56.031Z,5268.00
2019-02-26T07:39:52.338Z,3852.00
2019-02-26T07:40:54.182Z,7156.00
2019-02-26T07:41:54.221Z,7104.00
2019-02-26T07:42:52.270Z,7132.00
2019-02-26T07:43:54.573Z,7076.00
2019-02-26T07:44:52.249Z,7092.00
2019-02-26T07:45:52.256Z,7076.00
2019-02-26T07:46:52.226Z,7172.00
2019-02-26T07:47:55.414Z,7252.00
2019-02-26T07:48:53.968Z,7340.00
2019-02-26T07:49:52.210Z,7208.00
2019-02-26T07:50:52.207Z,7432.00
2019-02-26T07:51:52.171Z,7564.00
2019-02-26T07:52:54.126Z,7712.00
2019-02-26T07:53:54.285Z,7776.00
2019-02-26T07:54:52.139Z,7740.00
2019-02-26T07:55:52.126Z,7848.00
2019-02-26T07:56:53.357Z,7988.00
2019-02-26T07:57:53.203Z,7932.00
2019-02-26T07:58:52.093Z,8008.00
2019-02-26T07:59:52.078Z,7912.00
2019-02-26T08:00:52.355Z,8092.00
2019-02-26T08:01:52.058Z,8208.00
2019-02-26T08:02:54.017Z,8172.00
2019-02-26T08:03:53.277Z,8296.00
2019-02-26T08:04:52.028Z,8468.00
2019-02-26T08:05:52.014Z,8524.00
2019-02-26T08:06:54.145Z,8552.00
2019-02-26T08:07:54.037Z,8560.00
2019-02-26T08:08:51.984Z,8600.00
2019-02-26T08:09:51.966Z,8688.00
2019-02-26T08:10:53.068Z,8816.00
2019-02-26T08:11:51.943Z,8924.00
2019-02-26T08:12:51.934Z,8960.00
2019-02-26T08:13:54.216Z,9008.00
2019-02-26T08:14:51.908Z,9048.00
2019-02-26T08:15:52.760Z,9012.00
2019-02-26T08:16:54.210Z,9092.00
2019-02-26T08:17:56.009Z,9136.00
2019-02-26T08:18:54.164Z,9148.00
2019-02-26T08:19:51.850Z,9216.00
2019-02-26T08:20:52.795Z,9348.00
2019-02-26T08:21:53.106Z,9432.00
2019-02-26T08:22:53.997Z,9500.00
2019-02-26T08:23:52.801Z,9472.00
2019-02-26T08:24:52.865Z,9600.00
2019-02-26T08:25:52.370Z,9680.00
2019-02-26T08:26:51.773Z,9660.00
2019-02-26T08:27:53.927Z,9616.00
2019-02-26T08:28:51.751Z,9592.00
2019-02-26T08:29:54.171Z,9680.00
2019-02-26T08:30:53.013Z,9404.00
2019-02-26T08:31:52.683Z,9412.00
2019-02-26T08:32:54.257Z,9716.00
2019-02-26T08:33:51.918Z,9860.00
2019-02-26T08:34:51.684Z,9964.00
2019-02-26T08:35:55.531Z,9896.00
2019-02-26T08:36:51.662Z,9896.00
2019-02-26T08:37:51.651Z,9884.00
2019-02-26T08:38:52.079Z,9804.00
2019-02-26T08:39:51.620Z,9528.00
2019-02-26T08:40:51.610Z,9664.00
2019-02-26T08:41:51.633Z,9904.00
2019-02-26T08:42:51.590Z,9972.00
2019-02-26T08:43:53.863Z,10028.00
2019-02-26T08:44:53.653Z,10100.00
2019-02-26T08:45:51.555Z,10192.00
2019-02-26T08:46:51.541Z,10236.00
2019-02-26T08:47:51.549Z,10232.00
2019-02-26T08:48:51.521Z,10292.00
2019-02-26T08:49:51.510Z,10296.00
2019-02-26T08:50:51.504Z,10300.00
2019-02-26T08:51:51.485Z,10320.00
2019-02-26T08:52:53.502Z,10328.00
2019-02-26T08:53:51.988Z,10380.00
2019-02-26T08:54:51.457Z,10336.00
2019-02-26T08:55:53.516Z,10296.00
2019-02-26T08:56:51.432Z,10344.00
2019-02-26T08:57:53.812Z,10344.00
2019-02-26T08:58:51.438Z,10308.00
2019-02-26T08:59:52.306Z,10292.00
2019-02-26T09:00:51.385Z,10232.00
2019-02-26T09:01:51.445Z,10180.00
2019-02-26T09:02:53.931Z,10216.00
2019-02-26T09:03:53.759Z,10220.00
2019-02-26T09:04:51.344Z,10252.00
2019-02-26T09:05:52.173Z,10252.00
2019-02-26T09:06:52.422Z,10236.00
2019-02-26T09:07:51.313Z,10300.00
2019-02-26T09:08:51.301Z,10272.00
2019-02-26T09:09:54.332Z,10360.00
2019-02-26T09:10:51.274Z,10360.00
2019-02-26T09:11:52.956Z,10472.00
2019-02-26T09:12:52.074Z,10476.00
2019-02-26T09:13:51.245Z,10528.00
2019-02-26T09:14:51.231Z,10560.00
2019-02-26T09:15:51.234Z,10644.00
2019-02-26T09:16:52.588Z,10572.00
2019-02-26T09:17:51.197Z,10656.00
2019-02-26T09:18:51.187Z,10732.00
2019-02-26T09:19:56.088Z,10808.00
2019-02-26T09:20:52.190Z,10928.00
2019-02-26T09:21:52.475Z,11060.00
2019-02-26T09:22:53.704Z,11096.00
2019-02-26T09:23:54.858Z,11120.00
2019-02-26T09:24:54.342Z,11168.00
2019-02-26T09:25:54.171Z,11156.00
2019-02-26T09:26:52.110Z,11100.00
2019-02-26T09:27:51.080Z,11100.00
2019-02-26T09:28:52.473Z,11124.00
2019-02-26T09:29:51.483Z,11120.00
2019-02-26T09:30:51.045Z,11104.00
2019-02-26T09:31:51.035Z,11080.00
2019-02-26T09:32:52.501Z,11032.00
2019-02-26T09:33:51.011Z,10960.00
2019-02-26T09:34:53.943Z,10716.00
2019-02-26T09:35:52.150Z,10468.00
2019-02-26T09:36:53.032Z,10884.00
2019-02-26T09:37:53.319Z,10460.00
2019-02-26T09:38:51.412Z,10844.00
2019-02-26T09:39:52.033Z,10920.00
2019-02-26T09:40:52.356Z,10840.00
2019-02-26T09:41:50.920Z,10820.00
2019-02-26T09:42:54.268Z,10760.00
2019-02-26T09:43:50.932Z,10604.00
2019-02-26T09:44:52.968Z,10336.00
2019-02-26T09:45:52.878Z,10524.00
2019-02-26T09:46:50.862Z,10708.00
2019-02-26T09:47:52.711Z,10872.00
2019-02-26T09:48:50.842Z,11124.00
2019-02-26T09:49:51.614Z,11060.00
2019-02-26T09:50:50.819Z,11196.00
2019-02-26T09:51:50.811Z,10100.00
2019-02-26T09:52:52.675Z,9896.00
2019-02-26T09:53:52.586Z,10012.00
2019-02-26T09:54:52.841Z,10264.00
2019-02-26T09:55:51.780Z,11416.00
2019-02-26T09:56:51.604Z,11136.00
2019-02-26T09:57:51.613Z,10544.00
2019-02-26T09:58:50.944Z,10868.00
2019-02-26T09:59:52.205Z,10336.00
2019-02-26T10:00:51.766Z,10880.00
2019-02-26T10:01:51.608Z,10816.00
2019-02-26T10:02:52.140Z,10348.00
2019-02-26T10:03:50.676Z,11072.00
2019-02-26T10:04:51.979Z,10856.00
2019-02-26T10:05:52.754Z,10876.00
2019-02-26T10:06:50.669Z,10704.00
2019-02-26T10:07:53.674Z,10364.00
2019-02-26T10:08:51.402Z,10800.00
2019-02-26T10:09:51.613Z,10928.00
2019-02-26T10:10:51.987Z,11052.00
2019-02-26T10:11:51.570Z,11040.00
2019-02-26T10:12:53.218Z,11016.00
2019-02-26T10:13:51.192Z,11084.00
2019-02-26T10:14:52.271Z,11072.00
2019-02-26T10:15:50.542Z,11324.00
2019-02-26T10:16:52.378Z,11280.00
2019-02-26T10:17:50.547Z,11260.00
2019-02-26T10:18:52.393Z,9652.00
2019-02-26T10:19:50.493Z,10240.00
2019-02-26T10:20:52.255Z,10808.00
2019-02-26T10:21:50.470Z,9984.00
2019-02-26T10:22:52.478Z,11324.00
2019-02-26T10:23:52.121Z,10644.00
2019-02-26T10:24:50.436Z,10480.00
2019-02-26T10:25:55.612Z,11256.00
2019-02-26T10:26:51.412Z,11876.00
2019-02-26T10:27:50.403Z,11312.00
2019-02-26T10:28:57.254Z,11572.00
2019-02-26T10:29:51.409Z,12828.00
2019-02-26T10:30:50.368Z,10452.00
2019-02-26T10:31:50.359Z,9424.00
2019-02-26T10:32:50.344Z,9856.00
2019-02-26T10:33:50.829Z,11388.00
2019-02-26T10:34:50.323Z,9216.00
2019-02-26T10:35:50.330Z,11048.00
2019-02-26T10:36:51.878Z,17568.00
2019-02-26T10:37:50.296Z,21248.00
2019-02-26T10:38:52.590Z,22560.00
2019-02-26T10:39:54.862Z,27136.00
2019-02-26T10:40:54.191Z,31072.00
2019-02-26T10:41:51.294Z,32576.00
2019-02-26T10:42:50.235Z,31648.00
2019-02-26T10:43:50.225Z,32448.00
2019-02-26T10:44:50.216Z,37760.00
2019-02-26T10:45:52.167Z,42432.00
2019-02-26T10:46:50.222Z,43392.00
2019-02-26T10:47:51.333Z,39200.00
2019-02-26T10:48:51.131Z,39520.00
2019-02-26T10:49:51.882Z,40640.00
2019-02-26T10:50:51.848Z,38208.00
2019-02-26T10:51:50.135Z,40608.00
2019-02-26T10:52:52.582Z,42400.00
2019-02-26T10:53:50.112Z,35936.00
2019-02-26T10:54:50.100Z,40320.00
2019-02-26T10:55:50.580Z,43584.00
2019-02-26T10:56:50.078Z,40256.00
2019-02-26T10:57:50.100Z,37600.00
2019-02-26T10:58:50.061Z,40128.00
2019-02-26T10:59:50.074Z,39840.00
2019-02-26T11:00:52.578Z,44000.00
2019-02-26T11:01:52.325Z,46016.00
2019-02-26T11:02:54.080Z,49760.00
2019-02-26T11:03:52.264Z,50336.00
2019-02-26T11:04:52.723Z,50304.00
2019-02-26T11:05:52.369Z,48800.00
2019-02-26T11:06:49.967Z,47264.00
2019-02-26T11:07:49.959Z,47392.00
2019-02-26T11:08:51.184Z,47392.00
2019-02-26T11:09:51.235Z,40448.00
2019-02-26T11:10:52.211Z,28096.00
2019-02-26T11:11:49.918Z,26624.00
2019-02-26T11:12:50.621Z,19424.00
2019-02-26T11:13:51.941Z,5868.00
2019-02-26T11:14:49.881Z,4280.00
2019-02-26T11:15:51.665Z,4172.00
2019-02-26T11:16:49.858Z,3680.00
2019-02-26T11:17:51.295Z,3512.00
2019-02-26T11:18:49.836Z,3496.00
2019-02-26T11:19:49.855Z,3356.00
2019-02-26T11:20:50.306Z,3348.00
2019-02-26T11:21:53.213Z,3312.00
2019-02-26T11:22:52.061Z,3140.00
2019-02-26T11:23:49.779Z,3148.00
2019-02-26T11:24:50.869Z,2944.00
2019-02-26T11:25:49.778Z,2944.00
2019-02-26T11:26:49.751Z,2968.00
2019-02-26T11:27:49.733Z,2956.00
2019-02-26T11:28:49.723Z,2912.00
2019-02-26T11:29:49.711Z,2792.00
2019-02-26T11:30:51.554Z,2760.00
2019-02-26T11:31:49.837Z,2816.00
2019-02-26T11:32:49.680Z,2788.00
2019-02-26T11:33:49.677Z,2512.00
2019-02-26T11:34:50.869Z,2404.00
2019-02-26T11:35:51.489Z,2676.00
2019-02-26T11:36:49.662Z,2508.00
2019-02-26T11:37:50.316Z,2384.00
2019-02-26T11:38:49.611Z,2620.00
2019-02-26T11:39:49.600Z,2648.00
2019-02-26T11:40:49.590Z,2528.00
2019-02-26T11:41:53.068Z,2540.00
2019-02-26T11:42:51.254Z,2368.00
2019-02-26T11:43:49.556Z,2416.00
2019-02-26T11:44:49.546Z,2300.00
2019-02-26T11:45:49.534Z,1968.00
2019-02-26T11:46:51.356Z,2416.00
2019-02-26T11:47:49.511Z,2416.00
2019-02-26T11:48:50.223Z,2408.00
2019-02-26T11:49:49.487Z,2388.00
2019-02-26T11:50:49.477Z,2360.00
2019-02-26T11:51:49.466Z,2564.00
2019-02-26T11:52:54.313Z,2600.00
2019-02-26T11:53:50.471Z,2640.00
2019-02-26T11:54:49.431Z,2644.00
2019-02-26T11:55:51.762Z,2808.00
2019-02-26T11:56:50.670Z,2924.00
2019-02-26T11:57:49.811Z,2748.00
2019-02-26T11:58:49.389Z,2668.00
2019-02-26T11:59:49.400Z,2716.00
2019-02-26T12:00:50.666Z,2668.00
2019-02-26T12:01:49.354Z,2632.00
2019-02-26T12:02:49.338Z,2448.00
2019-02-26T12:03:49.329Z,2368.00
2019-02-26T12:04:49.316Z,2680.00
2019-02-26T12:05:49.321Z,2756.00
2019-02-26T12:06:49.291Z,2896.00
2019-02-26T12:07:51.335Z,2948.00
2019-02-26T12:08:50.031Z,3056.00
2019-02-26T12:09:49.257Z,2880.00
2019-02-26T12:10:52.163Z,2784.00
2019-02-26T12:11:49.237Z,2752.00
2019-02-26T12:12:51.522Z,2864.00
2019-02-26T12:13:50.241Z,2956.00
2019-02-26T12:14:49.200Z,3092.00
2019-02-26T12:15:49.191Z,3100.00
2019-02-26T12:16:49.209Z,2952.00
2019-02-26T12:17:49.752Z,2804.00
2019-02-26T12:18:49.154Z,2888.00
2019-02-26T12:19:51.467Z,2840.00
2019-02-26T12:20:49.651Z,2792.00
2019-02-26T12:21:49.535Z,2768.00
2019-02-26T12:22:49.809Z,2792.00
2019-02-26T12:23:49.097Z,2800.00
2019-02-26T12:24:52.986Z,2844.00
2019-02-26T12:25:52.557Z,2856.00
2019-02-26T12:26:49.998Z,2892.00
2019-02-26T12:27:49.056Z,2996.00
2019-02-26T12:28:49.165Z,2960.00
2019-02-26T12:29:51.745Z,2936.00
2019-02-26T12:30:49.016Z,3044.00
2019-02-26T12:31:50.262Z,3148.00
2019-02-26T12:32:49.918Z,3124.00
2019-02-26T12:33:49.009Z,3124.00
2019-02-26T12:34:51.436Z,3032.00
2019-02-26T12:35:48.961Z,2896.00
2019-02-26T12:36:51.158Z,2820.00